Time;durP1;ratioP1;P1;durP2;ratioP2;P2;SDS_P1;SDS_P2;PMS_P1;PMS_P2;Temp;Humidity;BMP_temperature;BMP_pressure;BME280_temperature;BME280_humidity;BME280_pressure;Samples;Min_cycle;Max_cycle;Signal;HPM_P1;HPM_P2
2021/08/03 00:00:09;;;;;;;7.03;6.10;;;;;;;22.80;66.59;98559.19;3325663;29;20038;-69
2021/08/03 00:01:53;;;;;;;8.65;7.15;;;;;;;22.79;67.07;98569.22;3325798;29;20106;-69
2021/08/03 00:03:37;;;;;;;8.68;6.72;;;;;;;22.77;66.54;98568.75;3337457;29;20050;-70
2021/08/03 00:05:24;;;;;;;12.70;6.57;;;;;;;22.79;66.73;98571.94;3327718;29;20058;-70
2021/08/03 00:07:08;;;;;;;9.32;6.03;;;;;;;22.78;66.07;98572.28;3337013;29;20120;-69
2021/08/03 00:08:52;;;;;;;10.00;6.88;;;;;;;22.79;66.43;98573.88;3327490;29;20042;-69
2021/08/03 00:10:33;;;;;;;9.77;5.80;;;;;;;22.77;66.85;98574.19;3324612;29;20472;-70
2021/08/03 00:12:16;;;;;;;16.55;6.50;;;;;;;22.77;66.43;98585.06;3337504;29;20041;-70
2021/08/03 00:13:58;;;;;;;13.02;7.22;;;;;;;22.76;67.07;98582.63;3328008;29;20051;-70
2021/08/03 00:15:39;;;;;;;11.65;6.28;;;;;;;22.77;66.81;98574.19;3325428;29;20038;-69
2021/08/03 00:17:25;;;;;;;7.53;6.80;;;;;;;22.76;67.07;98586.13;3337328;29;20080;-70
2021/08/03 00:19:06;;;;;;;9.00;6.53;;;;;;;22.73;66.55;98586.75;3327460;29;20050;-70
2021/08/03 00:20:47;;;;;;;8.43;7.47;;;;;;;22.70;66.95;98581.13;3325788;29;20067;-69
2021/08/03 00:22:27;;;;;;;10.30;7.37;;;;;;;22.75;67.04;98583.75;3337260;29;20290;-69
2021/08/03 00:24:08;;;;;;;9.37;7.23;;;;;;;22.74;67.42;98587.56;3328008;29;20057;-69
2021/08/03 00:25:53;;;;;;;10.43;7.20;;;;;;;22.74;67.87;98592.97;3325851;29;20061;-69
2021/08/03 00:27:34;;;;;;;7.05;6.28;;;;;;;22.73;67.65;98586.75;3325783;29;20042;-71
2021/08/03 00:29:15;;;;;;;9.30;5.68;;;;;;;22.74;67.59;98587.56;3325529;29;20053;-70
2021/08/03 00:30:56;;;;;;;9.87;5.63;;;;;;;22.74;67.33;98603.84;3325680;29;20521;-69
2021/08/03 00:32:37;;;;;;;10.02;5.82;;;;;;;22.77;67.15;98605.97;3336894;29;20446;-70
2021/08/03 00:34:18;;;;;;;8.50;6.77;;;;;;;22.77;67.42;98608.69;3327804;29;20050;-70
2021/08/03 00:35:59;;;;;;;6.47;5.50;;;;;;;22.77;67.57;98600.53;3324647;29;20383;-70
2021/08/03 00:37:40;;;;;;;7.80;6.13;;;;;;;22.74;67.64;98601.94;3325367;29;20099;-69
2021/08/03 00:39:22;;;;;;;10.07;6.43;;;;;;;22.73;68.01;98603.06;3324575;29;20491;-70
2021/08/03 00:41:08;;;;;;;6.28;5.40;;;;;;;22.74;67.88;98612.00;3325310;29;20106;-71
2021/08/03 00:42:49;;;;;;;8.45;5.75;;;;;;;22.72;67.65;98612.31;3325350;29;20042;-72
2021/08/03 00:44:39;;;;;;;9.40;5.40;;;;;;;22.76;68.03;98621.47;3324628;29;20046;-71
2021/08/03 00:46:21;;;;;;;5.45;4.95;;;;;;;22.76;67.84;98617.94;3325396;29;20050;-71
2021/08/03 00:48:03;;;;;;;8.15;5.40;;;;;;;22.76;67.53;98621.47;3324152;29;20496;-72
2021/08/03 00:49:45;;;;;;;7.20;5.03;;;;;;;22.78;67.54;98621.16;3325382;29;20062;-71
2021/08/03 00:51:29;;;;;;;8.63;5.00;;;;;;;22.78;67.37;98613.81;3325756;29;20186;-70
2021/08/03 00:53:11;;;;;;;8.48;5.28;;;;;;;22.81;67.51;98626.00;3311969;29;20063;-71
2021/08/03 00:54:53;;;;;;;9.65;5.18;;;;;;;22.81;67.75;98623.28;3320484;29;20125;-71
2021/08/03 00:56:34;;;;;;;8.03;4.80;;;;;;;22.81;67.52;98617.84;3325734;29;20102;-72
2021/08/03 00:58:16;;;;;;;5.18;4.63;;;;;;;22.81;67.51;98615.13;3325729;29;20052;-71
2021/08/03 00:59:59;;;;;;;14.65;5.25;;;;;;;22.81;67.55;98615.94;3326088;29;20064;-71
2021/08/03 01:01:45;;;;;;;4.95;4.53;;;;;;;22.83;67.57;98618.34;3325320;29;20054;-71
2021/08/03 01:03:25;;;;;;;8.10;4.65;;;;;;;22.83;67.51;98627.31;3324791;29;20050;-71
2021/08/03 01:05:07;;;;;;;6.97;5.30;;;;;;;22.84;67.61;98636.25;3325142;29;20050;-70
2021/08/03 01:06:56;;;;;;;11.32;4.55;;;;;;;22.84;67.67;98634.34;3325794;29;20081;-71
2021/08/03 01:08:59;;;;;;;7.15;4.88;;;;;;;22.86;67.74;98644.91;3324121;29;20046;-70
2021/08/03 01:11:03;;;;;;;6.05;5.10;;;;;;;22.84;67.56;98641.69;3324485;29;20095;-70
2021/08/03 01:12:54;;;;;;;8.95;5.25;;;;;;;22.85;67.51;98637.88;3337537;29;20042;-71
2021/08/03 01:14:39;;;;;;;7.50;4.57;;;;;;;22.83;67.49;98640.88;3324941;29;20054;-70
2021/08/03 01:16:58;;;;;;;9.70;4.55;;;;;;;22.89;67.28;98644.31;3325649;29;20090;-70
2021/08/03 01:19:15;;;;;;;6.15;4.10;;;;;;;22.87;67.25;98649.22;3323548;29;20145;-71
2021/08/03 01:21:16;;;;;;;10.50;4.35;;;;;;;22.88;67.07;98637.28;3319782;29;20054;-71
2021/08/03 01:23:17;;;;;;;6.15;4.22;;;;;;;22.85;67.31;98637.88;3323961;29;20057;-71
2021/08/03 01:25:16;;;;;;;9.68;3.67;;;;;;;22.88;66.97;98642.72;3324324;29;20133;-71
2021/08/03 01:27:36;;;;;;;5.88;3.88;;;;;;;22.88;66.94;98641.91;3311762;29;20056;-71
2021/08/03 01:29:18;;;;;;;4.40;3.15;;;;;;;22.84;66.80;98647.13;3324417;29;20061;-71
2021/08/03 01:31:05;;;;;;;4.22;3.75;;;;;;;22.83;67.08;98645.53;3311773;29;20062;-70
2021/08/03 01:32:48;;;;;;;3.85;3.55;;;;;;;22.82;67.10;98642.00;3321121;29;20061;-72
2021/08/03 01:34:30;;;;;;;4.43;3.08;;;;;;;22.83;66.82;98654.47;3334613;29;20551;-72
2021/08/03 01:36:15;;;;;;;3.80;3.50;;;;;;;22.84;66.78;98658.78;3326085;29;20043;-70
2021/08/03 01:38:00;;;;;;;7.65;4.55;;;;;;;22.84;66.84;98655.28;3322275;29;20050;-71
2021/08/03 01:39:49;;;;;;;5.15;3.88;;;;;;;22.84;66.74;98664.22;3309820;29;20055;-71
2021/08/03 01:41:30;;;;;;;5.53;3.03;;;;;;;22.84;66.78;98666.16;3322748;29;20132;-71
2021/08/03 01:43:11;;;;;;;5.40;3.60;;;;;;;22.84;66.62;98663.44;3311469;29;20078;-70
2021/08/03 01:44:53;;;;;;;3.88;3.47;;;;;;;22.82;66.39;98663.75;3319534;29;20058;-71
2021/08/03 01:46:39;;;;;;;5.13;2.88;;;;;;;22.81;66.65;98669.47;3324918;29;20058;-72
2021/08/03 01:48:20;;;;;;;4.00;3.22;;;;;;;22.79;66.58;98667.03;3324428;29;20119;-70
2021/08/03 01:50:01;;;;;;;5.90;3.10;;;;;;;22.79;66.57;98668.94;3324205;29;20107;-70
2021/08/03 01:51:45;;;;;;;3.35;2.75;;;;;;;22.81;66.23;98677.63;3311405;29;20535;-71
2021/08/03 01:53:27;;;;;;;4.00;2.90;;;;;;;22.81;66.23;98681.13;3319073;29;20534;-70
2021/08/03 01:55:09;;;;;;;4.47;3.45;;;;;;;22.81;66.29;98678.41;3311341;29;20552;-69
2021/08/03 01:56:53;;;;;;;4.93;2.72;;;;;;;22.82;66.27;98676.50;3322478;29;20050;-70
2021/08/03 01:58:38;;;;;;;3.35;3.05;;;;;;;22.81;66.45;98664.03;3324642;29;20047;-70
2021/08/03 02:00:30;;;;;;;4.85;3.50;;;;;;;22.83;66.12;98672.69;3338493;29;20152;-71
2021/08/03 02:02:18;;;;;;;4.28;3.53;;;;;;;22.82;66.42;98681.94;3326452;29;20114;-71
2021/08/03 02:04:05;;;;;;;6.22;3.25;;;;;;;22.81;66.12;98685.75;3323930;29;20415;-70
2021/08/03 02:05:50;;;;;;;4.65;3.40;;;;;;;22.81;66.13;98688.47;3337541;29;20056;-71
2021/08/03 02:07:40;;;;;;;5.10;3.15;;;;;;;22.82;66.22;98681.94;3325965;29;20042;-72
2021/08/03 02:09:23;;;;;;;4.90;3.22;;;;;;;22.80;66.15;98684.97;3323902;29;20046;-71
2021/08/03 02:11:04;;;;;;;3.10;2.80;;;;;;;22.83;66.21;98689.00;3314171;29;20072;-70
2021/08/03 02:12:46;;;;;;;4.37;3.20;;;;;;;22.84;66.17;98687.88;3324384;29;20050;-71
2021/08/03 02:14:27;;;;;;;4.22;3.00;;;;;;;22.82;66.21;98687.38;3326020;29;20296;-71
2021/08/03 02:16:15;;;;;;;5.50;3.35;;;;;;;22.85;66.04;98687.59;3336952;29;20098;-71
2021/08/03 02:17:58;;;;;;;5.00;3.15;;;;;;;22.84;66.15;98690.59;3326139;29;20054;-72
2021/08/03 02:19:47;;;;;;;3.15;2.80;;;;;;;22.85;65.87;98689.50;3324808;29;20050;-72
2021/08/03 02:21:28;;;;;;;6.00;2.92;;;;;;;22.86;65.97;98693.81;3323706;29;20475;-73
2021/08/03 02:23:09;;;;;;;4.40;2.67;;;;;;;22.85;65.74;98692.22;3335905;29;20107;-71
2021/08/03 02:24:55;;;;;;;4.03;3.03;;;;;;;22.86;66.00;98701.97;3325895;29;20046;-72
2021/08/03 02:26:39;;;;;;;5.80;3.30;;;;;;;22.86;65.66;98702.78;3325683;29;20134;-72
2021/08/03 02:28:20;;;;;;;6.20;3.00;;;;;;;22.88;65.86;98713.34;3336123;29;20077;-71
2021/08/03 02:30:01;;;;;;;2.57;2.37;;;;;;;22.88;65.71;98715.28;3329863;29;20678;-72
2021/08/03 02:31:53;;;;;;;6.43;2.83;;;;;;;22.88;65.71;98707.94;3326255;29;20088;-71
2021/08/03 02:33:40;;;;;;;9.48;3.25;;;;;;;22.86;65.85;98700.06;3327213;29;20198;-72
2021/08/03 02:35:24;;;;;;;8.38;3.22;;;;;;;22.89;65.83;98706.81;3325945;29;20057;-72
2021/08/03 02:37:11;;;;;;;4.38;2.50;;;;;;;22.90;65.83;98703.00;3324448;29;20065;-72
2021/08/03 02:39:03;;;;;;;6.30;3.25;;;;;;;22.93;65.58;98710.56;3325008;29;20140;-71
2021/08/03 02:40:44;;;;;;;6.22;2.72;;;;;;;22.96;65.55;98707.22;3327123;29;20541;-73
2021/08/03 02:42:37;;;;;;;3.97;3.10;;;;;;;22.97;65.67;98703.41;3326236;29;20496;-71
2021/08/03 02:44:18;;;;;;;2.78;2.40;;;;;;;23.00;65.75;98710.16;3326789;29;20046;-72
2021/08/03 02:46:02;;;;;;;4.18;2.22;;;;;;;23.01;65.51;98712.59;3326560;29;20057;-71
2021/08/03 02:47:49;;;;;;;4.53;2.55;;;;;;;23.01;65.46;98714.50;3325633;29;20099;-72
2021/08/03 02:49:47;;;;;;;3.53;2.67;;;;;;;23.01;65.34;98701.72;3326246;29;20578;-71
2021/08/03 02:51:34;;;;;;;4.18;2.63;;;;;;;23.02;65.05;98703.31;3325540;29;20046;-71
2021/08/03 02:53:35;;;;;;;2.40;2.20;;;;;;;23.07;64.88;98711.38;3326265;29;20137;-71
2021/08/03 02:55:22;;;;;;;;;;;;;;;23.11;64.79;98708.09;3326754;29;20054;-70
2021/08/03 02:57:08;;;;;;;4.97;2.20;;;;;;;23.04;64.70;98717.44;3325360;29;20023;-70
2021/08/03 02:58:58;;;;;;;5.30;2.65;;;;;;;23.03;65.09;98726.69;3313003;29;20407;-71
2021/08/03 03:00:39;;;;;;;4.00;2.45;;;;;;;23.04;64.65;98733.72;3335085;29;20136;-71
2021/08/03 03:02:23;;;;;;;4.13;2.10;;;;;;;23.06;64.76;98736.16;3337836;29;20499;-71
2021/08/03 03:04:26;;;;;;;2.00;1.80;;;;;;;23.06;64.55;98731.53;3315099;29;20141;-71
2021/08/03 03:06:09;;;;;;;4.13;2.38;;;;;;;23.07;64.65;98738.56;3338238;29;20121;-71
2021/08/03 03:08:07;;;;;;;4.20;2.10;;;;;;;23.09;64.66;98730.13;3328129;29;20195;-71
2021/08/03 03:09:49;;;;;;;3.38;2.08;;;;;;;22.97;64.61;98722.44;3326509;29;20072;-70
2021/08/03 03:11:31;;;;;;;2.40;2.20;;;;;;;23.12;64.29;98742.31;3326239;29;20586;-72
2021/08/03 03:13:36;;;;;;;4.05;2.53;;;;;;;23.12;64.71;98745.81;3323511;29;20569;-72
2021/08/03 03:15:18;;;;;;;4.43;2.10;;;;;;;23.10;64.27;98736.34;3326415;29;20042;-71
2021/08/03 03:17:01;;;;;;;3.70;1.98;;;;;;;23.07;64.40;98745.91;3325146;29;20046;-71
2021/08/03 03:18:43;;;;;;;2.83;2.58;;;;;;;23.08;63.91;98755.69;3335528;29;20045;-70
2021/08/03 03:20:24;;;;;;;2.10;1.95;;;;;;;23.08;63.96;98756.50;3325138;29;20166;-71
2021/08/03 03:22:06;;;;;;;3.30;1.90;;;;;;;23.10;63.58;98761.63;3325830;29;20196;-69
2021/08/03 03:23:52;;;;;;;1.92;1.52;;;;;;;23.10;63.75;98758.09;3313100;29;20541;-73
2021/08/03 03:25:35;;;;;;;2.65;1.70;;;;;;;23.13;63.69;98768.38;3324512;29;20078;-70
2021/08/03 03:27:17;;;;;;;4.20;1.90;;;;;;;23.14;63.64;98759.13;3325973;29;20495;-72
2021/08/03 03:29:00;;;;;;;4.82;1.70;;;;;;;23.12;63.29;98755.91;3324950;29;20107;-71
2021/08/03 03:30:43;;;;;;;4.15;1.73;;;;;;;23.14;63.19;98761.84;3312342;29;20538;-71
2021/08/03 03:32:28;;;;;;;3.50;1.73;;;;;;;23.14;63.43;98756.41;3308051;29;20054;-71
2021/08/03 03:34:10;;;;;;;4.65;1.80;;;;;;;23.17;62.92;98753.88;3323786;29;20565;-71
2021/08/03 03:35:55;;;;;;;2.03;1.60;;;;;;;23.18;62.92;98754.69;3312578;29;20058;-70
2021/08/03 03:37:38;;;;;;;6.25;1.70;;;;;;;23.21;63.31;98768.50;3324477;29;20080;-71
2021/08/03 03:39:19;;;;;;;1.02;0.98;;;;;;;23.22;62.68;98763.88;3325004;29;20069;-71
2021/08/03 03:41:07;;;;;;;2.17;1.33;;;;;;;23.26;62.75;98762.16;3310481;29;20054;-70
2021/08/03 03:42:50;;;;;;;2.40;1.17;;;;;;;23.29;62.76;98772.44;3324019;29;20062;-70
2021/08/03 03:44:31;;;;;;;1.75;1.38;;;;;;;23.33;62.56;98776.16;3325761;29;20058;-71
2021/08/03 03:46:15;;;;;;;12.57;1.70;;;;;;;23.34;62.50;98785.94;3324670;29;20050;-71
2021/08/03 03:48:00;;;;;;;4.10;1.30;;;;;;;23.36;62.16;98782.91;3312212;29;20047;-72
2021/08/03 03:49:45;;;;;;;1.20;1.10;;;;;;;23.34;62.35;98785.09;3333217;29;20038;-71
2021/08/03 03:51:28;;;;;;;2.20;1.60;;;;;;;23.43;62.29;98800.44;3324776;29;20539;-72
2021/08/03 03:53:13;;;;;;;2.35;1.42;;;;;;;23.46;62.19;98805.25;3335229;29;20050;-71
2021/08/03 03:54:54;;;;;;;4.70;1.48;;;;;;;23.50;62.26;98800.84;3314421;29;20050;-71
2021/08/03 03:56:44;;;;;;;1.63;1.40;;;;;;;23.55;61.96;98790.97;3309647;29;20051;-71
2021/08/03 03:58:27;;;;;;;1.42;1.30;;;;;;;23.58;61.96;98793.09;3335766;29;20090;-71
2021/08/03 04:00:09;;;;;;;1.52;1.38;;;;;;;23.60;61.77;98793.59;3314200;29;20047;-72
2021/08/03 04:01:59;;;;;;;1.33;0.80;;;;;;;23.60;61.35;98790.88;3323884;29;20490;-71
2021/08/03 04:03:44;;;;;;;4.07;1.05;;;;;;;23.62;61.61;98791.38;3310572;29;20495;-71
2021/08/03 04:05:26;;;;;;;7.45;1.25;;;;;;;23.62;61.38;98803.06;3332336;29;20144;-71
2021/08/03 04:07:07;;;;;;;5.47;1.00;;;;;;;23.62;61.16;98807.69;3308059;29;20046;-72
2021/08/03 04:08:48;;;;;;;3.05;1.05;;;;;;;23.64;60.88;98805.47;3322520;29;20093;-72
2021/08/03 04:10:32;;;;;;;6.22;1.10;;;;;;;23.65;61.32;98807.09;3322137;29;20061;-72
2021/08/03 04:12:13;;;;;;;2.03;1.13;;;;;;;23.70;61.05;98809.72;3337331;29;20413;-70
2021/08/03 04:13:56;;;;;;;0.82;0.80;;;;;;;23.71;60.88;98822.22;3327273;29;20060;-71
2021/08/03 04:15:39;;;;;;;1.92;1.00;;;;;;;23.70;60.82;98836.94;3337590;29;20478;-71
2021/08/03 04:17:20;;;;;;;2.97;1.10;;;;;;;23.69;60.88;98819.78;3324756;29;20038;-72
2021/08/03 04:19:01;;;;;;;4.28;0.98;;;;;;;23.68;60.59;98828.25;3325205;29;20050;-73
2021/08/03 04:20:42;;;;;;;6.90;1.20;;;;;;;23.61;60.70;98833.28;3325687;29;20098;-71
2021/08/03 04:22:25;;;;;;;4.33;1.53;;;;;;;23.55;60.19;98834.50;3325139;29;20050;-71
2021/08/03 04:24:06;;;;;;;1.60;0.98;;;;;;;23.48;60.06;98830.25;3325919;29;20640;-71
2021/08/03 04:25:47;;;;;;;3.20;1.17;;;;;;;23.43;60.15;98838.50;3324593;29;20133;-70
2021/08/03 04:27:28;;;;;;;3.10;0.80;;;;;;;23.40;59.35;98839.13;3325445;29;20054;-71
2021/08/03 04:29:08;;;;;;;2.70;0.80;;;;;;;23.39;59.20;98851.09;3325808;29;20077;-72
2021/08/03 04:30:49;;;;;;;2.40;0.80;;;;;;;23.38;58.82;98857.63;3324831;29;20156;-72
2021/08/03 04:32:30;;;;;;;6.23;1.57;;;;;;;23.36;58.94;98853.59;3325543;29;20553;-71
2021/08/03 04:34:10;;;;;;;2.37;0.80;;;;;;;23.38;58.89;98868.50;3325834;29;20081;-72
2021/08/03 04:35:51;;;;;;;1.80;0.80;;;;;;;23.39;58.83;98869.31;3325403;29;20053;-71
2021/08/03 04:37:40;;;;;;;1.90;0.90;;;;;;;23.41;58.55;98867.91;3323844;29;20057;-71
2021/08/03 04:39:20;;;;;;;0.90;0.75;;;;;;;23.41;58.86;98873.34;3325020;29;20057;-73
2021/08/03 04:41:01;;;;;;;2.90;0.80;;;;;;;23.37;58.82;98866.91;3324463;29;20133;-71
2021/08/03 04:42:43;;;;;;;4.37;0.63;;;;;;;23.37;59.29;98869.63;3324971;29;20062;-73
2021/08/03 04:44:23;;;;;;;1.42;1.00;;;;;;;23.37;59.11;98864.19;3325307;29;20044;-74
2021/08/03 04:46:04;;;;;;;0.93;0.70;;;;;;;23.39;59.21;98870.16;3325621;29;20046;-73
2021/08/03 04:47:47;;;;;;;4.03;1.10;;;;;;;23.39;59.31;98869.31;3325340;29;20689;-72
2021/08/03 04:49:28;;;;;;;2.40;1.15;;;;;;;23.35;59.40;98869.13;3325419;29;20042;-73
2021/08/03 04:51:09;;;;;;;5.23;1.23;;;;;;;23.32;59.98;98858.84;3325561;29;20125;-73
2021/08/03 04:52:51;;;;;;;4.17;1.73;;;;;;;23.24;60.42;98871.22;3325318;29;20053;-72
2021/08/03 04:54:31;;;;;;;2.53;1.20;;;;;;;23.21;60.51;98873.72;3325140;29;20400;-73
2021/08/03 04:56:12;;;;;;;3.53;1.37;;;;;;;23.18;60.43;98874.31;3324774;29;20174;-73
2021/08/03 04:57:53;;;;;;;5.43;1.30;;;;;;;23.13;60.52;98871.66;3324002;29;20191;-72
2021/08/03 04:59:34;;;;;;;2.53;0.97;;;;;;;23.11;60.79;98880.13;3333880;29;20074;-72
2021/08/03 05:01:14;;;;;;;2.07;1.27;;;;;;;23.07;60.88;98879.09;3327342;29;20103;-73
2021/08/03 05:02:55;;;;;;;3.23;1.30;;;;;;;23.01;61.15;98875.66;3324798;29;20418;-73
2021/08/03 05:04:36;;;;;;;5.27;1.43;;;;;;;22.96;61.44;98875.72;3324913;29;20050;-72
2021/08/03 05:06:16;;;;;;;3.67;1.30;;;;;;;22.89;61.41;98869.84;3325027;29;20690;-72
2021/08/03 05:07:59;;;;;;;3.77;1.57;;;;;;;22.90;61.81;98884.22;3324978;29;20468;-73
2021/08/03 05:09:41;;;;;;;7.45;1.23;;;;;;;22.85;61.85;98888.66;3324905;29;20533;-71
2021/08/03 05:11:22;;;;;;;1.30;1.20;;;;;;;22.83;61.92;98884.63;3324741;29;20054;-72
2021/08/03 05:13:03;;;;;;;4.70;1.43;;;;;;;22.81;61.62;98876.75;3324805;29;20094;-73
2021/08/03 05:14:43;;;;;;;4.47;1.30;;;;;;;22.84;61.73;98887.03;3323674;29;20048;-75
2021/08/03 05:16:25;;;;;;;3.83;1.20;;;;;;;22.86;61.93;98889.47;3324801;29;20129;-71
2021/08/03 05:18:05;;;;;;;4.15;1.30;;;;;;;22.86;61.60;98882.13;3324675;29;20050;-72
2021/08/03 05:19:46;;;;;;;3.73;1.13;;;;;;;22.88;61.71;98889.19;3324706;29;20125;-73
2021/08/03 05:21:27;;;;;;;5.07;1.30;;;;;;;22.92;61.72;98877.41;3323433;29;20471;-71
2021/08/03 05:23:07;;;;;;;1.57;1.00;;;;;;;22.96;61.23;98881.16;3324650;29;20499;-73
2021/08/03 05:24:48;;;;;;;7.23;1.27;;;;;;;22.99;61.29;98883.31;3324868;29;20132;-74
2021/08/03 05:26:30;;;;;;;6.50;1.90;;;;;;;23.03;61.13;98884.34;3324961;29;20046;-73
2021/08/03 05:28:11;;;;;;;2.95;1.08;;;;;;;23.09;61.08;98887.78;3324603;29;20042;-73
2021/08/03 05:29:51;;;;;;;2.50;1.33;;;;;;;23.12;60.95;98895.34;3324713;29;20038;-74
2021/08/03 05:31:32;;;;;;;2.37;1.37;;;;;;;23.16;60.62;98890.13;3324531;29;20102;-72
2021/08/03 05:33:14;;;;;;;4.35;1.30;;;;;;;23.20;60.28;98902.81;3324189;29;20042;-73
2021/08/03 05:34:55;;;;;;;1.47;0.77;;;;;;;23.24;59.57;98889.44;3324538;29;20087;-73
2021/08/03 05:36:36;;;;;;;4.03;1.87;;;;;;;23.29;58.62;98892.88;3324767;29;20043;-71
2021/08/03 05:38:16;;;;;;;2.57;1.10;;;;;;;23.31;58.45;98887.13;3324642;29;20046;-72
2021/08/03 05:39:58;;;;;;;4.43;1.80;;;;;;;23.39;57.88;98896.50;3324850;29;20100;-72
2021/08/03 05:41:39;;;;;;;4.03;1.27;;;;;;;23.42;57.82;98907.63;3324348;29;20058;-72
2021/08/03 05:43:20;;;;;;;2.37;0.97;;;;;;;23.46;57.66;98907.81;3324557;29;20050;-71
2021/08/03 05:45:00;;;;;;;5.23;1.60;;;;;;;23.49;57.10;98910.75;3323680;29;20062;-72
2021/08/03 05:46:41;;;;;;;5.17;1.03;;;;;;;23.56;57.35;98910.34;3324370;29;20050;-73
2021/08/03 05:48:22;;;;;;;7.00;1.40;;;;;;;23.60;56.89;98913.31;3324510;29;20107;-71
2021/08/03 05:50:06;;;;;;;4.80;1.40;;;;;;;23.63;57.21;98912.69;3324677;29;20133;-73
2021/08/03 05:51:47;;;;;;;1.80;0.90;;;;;;;23.70;56.89;98913.91;3324574;29;20110;-72
2021/08/03 05:53:27;;;;;;;4.33;0.90;;;;;;;23.76;57.02;98914.66;3323290;29;20485;-72
2021/08/03 05:55:08;;;;;;;3.07;0.90;;;;;;;23.73;57.15;98907.91;3323131;29;20038;-73
2021/08/03 05:56:49;;;;;;;4.60;1.10;;;;;;;23.83;56.70;98915.06;3324203;29;20050;-71
2021/08/03 05:58:30;;;;;;;3.17;0.90;;;;;;;23.86;56.78;98919.91;3324568;29;20047;-73
2021/08/03 06:00:11;;;;;;;0.70;0.70;;;;;;;23.86;57.27;98914.47;3324293;29;20050;-73
2021/08/03 06:01:56;;;;;;;1.00;0.60;;;;;;;23.88;57.03;98905.97;3324511;29;20085;-72
2021/08/03 06:03:37;;;;;;;3.47;0.77;;;;;;;23.90;57.26;98906.50;3324155;29;20042;-72
2021/08/03 06:05:18;;;;;;;2.20;0.97;;;;;;;23.92;57.16;98907.81;3324481;29;20146;-71
2021/08/03 06:07:02;;;;;;;2.63;1.20;;;;;;;23.97;57.18;98904.19;3324402;29;20046;-71
2021/08/03 06:08:43;;;;;;;4.97;0.88;;;;;;;24.00;57.14;98906.28;3324480;29;20563;-71
2021/08/03 06:10:27;;;;;;;4.77;0.90;;;;;;;24.02;56.75;98914.16;3323404;29;20058;-71
2021/08/03 06:12:09;;;;;;;3.13;1.08;;;;;;;24.02;57.04;98922.34;3333788;29;20050;-74
2021/08/03 06:13:56;;;;;;;2.10;0.75;;;;;;;24.03;56.89;98924.75;3326042;29;20038;-72
2021/08/03 06:15:42;;;;;;;0.88;0.80;;;;;;;24.05;56.67;98922.53;3324103;29;20043;-72
2021/08/03 06:17:35;;;;;;;2.10;0.63;;;;;;;24.09;57.14;98925.47;3323218;29;20499;-72
2021/08/03 06:19:15;;;;;;;5.95;0.80;;;;;;;24.12;56.83;98930.31;3324337;29;20042;-71
2021/08/03 06:20:58;;;;;;;2.00;1.20;;;;;;;24.14;57.02;98939.78;3323401;29;20550;-71
2021/08/03 06:22:39;;;;;;;3.92;1.08;;;;;;;24.13;56.94;98940.06;3323911;29;20050;-72
2021/08/03 06:24:19;;;;;;;3.80;1.00;;;;;;;24.15;56.71;98946.84;3324346;29;20081;-72
2021/08/03 06:26:01;;;;;;;4.80;0.90;;;;;;;24.13;56.92;98946.31;3323193;29;20431;-73
2021/08/03 06:27:43;;;;;;;2.40;1.08;;;;;;;24.18;56.50;98950.88;3323837;29;20134;-72
2021/08/03 06:29:25;;;;;;;;;;;;;;;24.26;56.58;98952.06;3323737;29;20086;-72
2021/08/03 06:31:06;;;;;;;2.92;0.98;;;;;;;24.26;56.70;98952.06;3323972;29;20284;-72
2021/08/03 06:32:48;;;;;;;3.72;1.02;;;;;;;24.27;56.53;98943.63;3323934;29;20046;-73
2021/08/03 06:34:29;;;;;;;;;;;;;;;24.49;56.40;98950.28;3324646;29;20518;-71
2021/08/03 06:36:09;;;;;;;2.58;0.95;;;;;;;24.63;56.08;98951.06;3324270;29;19931;-72
2021/08/03 06:37:50;;;;;;;1.07;0.80;;;;;;;24.84;55.65;98956.09;3324462;29;20045;-73
2021/08/03 06:39:32;;;;;;;3.30;0.80;;;;;;;24.90;55.22;98955.63;3324352;29;20498;-72
2021/08/03 06:41:25;;;;;;;5.07;0.95;;;;;;;25.05;54.54;98962.66;3323851;29;20070;-74
2021/08/03 06:43:09;;;;;;;0.70;0.60;;;;;;;25.13;54.58;98963.84;3323010;29;20066;-74
2021/08/03 06:44:55;;;;;;;1.02;0.63;;;;;;;25.18;54.11;98961.84;3321591;29;20324;-73
2021/08/03 06:46:39;;;;;;;1.23;0.70;;;;;;;25.32;54.33;98952.78;3326322;29;20054;-72
2021/08/03 06:48:28;;;;;;;5.05;1.00;;;;;;;25.52;53.78;98949.56;3326483;29;20103;-72
2021/08/03 06:50:09;;;;;;;4.22;1.10;;;;;;;25.81;53.26;98959.19;3326585;29;20053;-72
2021/08/03 06:51:55;;;;;;;1.95;0.88;;;;;;;26.09;53.18;98957.91;3325240;29;20058;-72
2021/08/03 06:53:37;;;;;;;2.00;0.93;;;;;;;26.37;52.91;98951.41;3326406;29;20042;-72
2021/08/03 06:55:25;;;;;;;1.33;0.70;;;;;;;26.59;52.38;98956.81;3325576;29;20042;-73
2021/08/03 06:57:12;;;;;;;2.58;0.80;;;;;;;26.63;51.65;98960.50;3326323;29;20062;-73
2021/08/03 06:59:03;;;;;;;3.42;1.10;;;;;;;26.58;51.94;98957.13;3326794;29;20126;-72
2021/08/03 07:00:44;;;;;;;3.00;0.80;;;;;;;26.49;52.19;98966.06;3326186;29;20046;-73
2021/08/03 07:02:29;;;;;;;2.75;1.00;;;;;;;26.38;52.18;98969.41;3323452;29;20042;-73
2021/08/03 07:04:11;;;;;;;3.45;0.82;;;;;;;26.28;52.21;98973.22;3328183;29;20054;-72
2021/08/03 07:05:54;;;;;;;0.98;0.77;;;;;;;26.22;52.22;98974.50;3327232;29;20061;-72
2021/08/03 07:07:35;;;;;;;2.72;0.77;;;;;;;26.19;52.39;98972.41;3326859;29;20046;-72
2021/08/03 07:09:16;;;;;;;2.67;1.10;;;;;;;26.16;52.04;98968.38;3325354;29;20046;-73
2021/08/03 07:10:56;;;;;;;5.37;0.90;;;;;;;26.14;52.37;98975.28;3313046;29;20545;-73
2021/08/03 07:12:41;;;;;;;;;;;;;;;26.16;52.62;98981.25;3321205;29;20518;-73
2021/08/03 07:14:25;;;;;;;2.70;0.88;;;;;;;26.05;52.57;98970.59;3326539;29;20007;-73
2021/08/03 07:16:06;;;;;;;0.60;0.60;;;;;;;26.05;52.78;98967.84;3326294;29;20074;-73
2021/08/03 07:17:47;;;;;;;1.33;0.87;;;;;;;26.16;52.07;98964.84;3326757;29;20046;-73
2021/08/03 07:19:29;;;;;;;3.10;0.70;;;;;;;26.19;52.24;98969.69;3326818;29;20054;-71
2021/08/03 07:21:10;;;;;;;;;;;;;;;26.28;52.01;98982.25;3338412;29;20637;-72
2021/08/03 07:22:52;;;;;;;2.53;1.00;;;;;;;26.24;51.64;98978.53;3328390;29;19971;-73
2021/08/03 07:24:33;;;;;;;2.28;0.77;;;;;;;26.25;51.81;98976.59;3325015;29;20042;-72
2021/08/03 07:26:13;;;;;;;2.05;0.80;;;;;;;26.24;51.96;98981.25;3312861;29;20047;-72
2021/08/03 07:27:54;;;;;;;3.23;0.80;;;;;;;26.26;51.53;98978.22;3323640;29;20119;-73
2021/08/03 07:29:35;;;;;;;0.67;0.60;;;;;;;26.26;51.25;98979.03;3326292;29;20050;-72
2021/08/03 07:31:15;;;;;;;1.50;0.70;;;;;;;26.25;50.76;98973.88;3325929;29;20046;-72
2021/08/03 07:32:58;;;;;;;1.90;0.75;;;;;;;26.24;50.54;98975.00;3326734;29;20065;-73
2021/08/03 07:34:42;;;;;;;3.03;0.73;;;;;;;26.22;51.19;98975.31;3326407;29;20081;-71
2021/08/03 07:36:23;;;;;;;1.23;0.60;;;;;;;26.18;50.67;98976.28;3326138;29;20053;-73
2021/08/03 07:38:05;;;;;;;2.67;1.00;;;;;;;26.18;51.17;98992.66;3325939;29;20533;-72
2021/08/03 07:39:45;;;;;;;3.33;1.10;;;;;;;26.10;50.60;98989.56;3324996;29;20052;-71
2021/08/03 07:41:26;;;;;;;1.87;1.00;;;;;;;26.04;51.27;98987.28;3325450;29;20066;-72
2021/08/03 07:43:07;;;;;;;1.20;1.00;;;;;;;26.05;51.29;98984.25;3325013;29;20133;-72
2021/08/03 07:44:48;;;;;;;1.60;0.73;;;;;;;26.26;51.12;98994.63;3325252;29;20042;-71
2021/08/03 07:46:30;;;;;;;5.07;1.07;;;;;;;26.42;50.77;98990.31;3325027;29;20053;-73
2021/08/03 07:48:10;;;;;;;1.67;0.90;;;;;;;26.57;50.75;98988.31;3325075;29;20050;-72
2021/08/03 07:49:52;;;;;;;3.40;1.00;;;;;;;26.65;50.59;98985.59;3324839;29;20090;-72
2021/08/03 07:51:33;;;;;;;2.00;1.13;;;;;;;26.73;49.86;98986.72;3325190;29;20050;-72
2021/08/03 07:53:14;;;;;;;7.72;1.33;;;;;;;26.77;49.94;98995.91;3324372;29;20518;-73
2021/08/03 07:54:55;;;;;;;1.83;0.97;;;;;;;26.80;50.19;98992.53;3324223;29;20122;-73
2021/08/03 07:56:35;;;;;;;3.20;0.90;;;;;;;26.87;49.76;99008.47;3323823;29;20187;-74
2021/08/03 07:58:16;;;;;;;1.77;1.10;;;;;;;26.96;49.32;98998.34;3324982;29;20578;-73
2021/08/03 07:59:57;;;;;;;3.77;0.80;;;;;;;27.04;48.83;99000.28;3325003;29;20054;-73
2021/08/03 08:01:38;;;;;;;2.40;0.70;;;;;;;27.04;48.79;98994.00;3324882;29;20038;-73
2021/08/03 08:03:18;;;;;;;1.03;0.70;;;;;;;27.02;49.24;98999.78;3324204;29;20042;-73
2021/08/03 08:04:59;;;;;;;6.00;0.97;;;;;;;26.97;48.66;99003.47;3324587;29;20148;-74
2021/08/03 08:06:40;;;;;;;1.33;1.10;;;;;;;26.89;48.78;98995.28;3325095;29;20050;-73
2021/08/03 08:08:20;;;;;;;1.20;0.70;;;;;;;26.76;48.73;98999.75;3324918;29;20133;-73